Time;durP1;ratioP1;P1;durP2;ratioP2;P2;SDS_P1;SDS_P2;PMS_P1;PMS_P2;Temp;Humidity;BMP_temperature;BMP_pressure;BME280_temperature;BME280_humidity;BME280_pressure;Samples;Min_cycle;Max_cycle;Signal;HPM_P1;HPM_P2
2021/01/21 00:01:42;;;;;;;3.13;1.52;;;8.50;99.90;;;;;;4910944;29;20051;-71
2021/01/21 00:04:08;;;;;;;1.98;1.08;;;8.40;99.90;;;;;;4910987;29;20476;-72
2021/01/21 00:06:34;;;;;;;1.85;0.90;;;8.40;99.90;;;;;;4910989;29;20057;-73
2021/01/21 00:09:00;;;;;;;1.58;0.98;;;8.40;99.90;;;;;;4911030;29;20033;-73
2021/01/21 00:11:26;;;;;;;1.58;0.85;;;8.50;99.90;;;;;;4893847;29;20036;-72
2021/01/21 00:13:51;;;;;;;0.98;0.60;;;8.40;99.90;;;;;;4910900;29;20036;-71
2021/01/21 00:16:17;;;;;;;3.78;0.80;;;8.40;99.90;;;;;;4909799;29;20056;-72
2021/01/21 00:18:43;;;;;;;2.60;1.13;;;8.40;99.90;;;;;;4910971;29;20037;-73
2021/01/21 00:21:08;;;;;;;1.35;0.63;;;8.40;99.90;;;;;;4909168;29;20039;-70
2021/01/21 00:23:34;;;;;;;5.85;1.08;;;8.40;99.90;;;;;;4910747;29;20032;-72
2021/01/21 00:25:59;;;;;;;1.48;0.68;;;8.40;99.90;;;;;;4893759;29;20029;-72
2021/01/21 00:28:25;;;;;;;1.50;0.93;;;8.40;99.90;;;;;;4910478;29;20052;-72
2021/01/21 00:30:52;;;;;;;1.63;0.82;;;8.30;99.90;;;;;;4910663;29;20077;-71
2021/01/21 00:33:18;;;;;;;4.35;1.00;;;8.30;99.90;;;;;;4910555;29;20057;-73
2021/01/21 00:35:44;;;;;;;4.18;1.08;;;8.30;99.90;;;;;;4910018;29;20078;-72
2021/01/21 00:38:10;;;;;;;1.05;0.80;;;8.30;99.90;;;;;;4910619;29;20528;-71
2021/01/21 00:40:35;;;;;;;3.22;1.15;;;8.30;99.90;;;;;;4910287;29;20033;-72
2021/01/21 00:43:01;;;;;;;2.97;1.55;;;8.30;99.90;;;;;;4910048;29;20080;-74
2021/01/21 00:45:27;;;;;;;0.98;0.70;;;8.30;99.90;;;;;;4910322;29;20032;-71
2021/01/21 00:47:53;;;;;;;1.05;0.73;;;8.30;99.90;;;;;;4910259;29;20418;-73
2021/01/21 00:50:18;;;;;;;0.85;0.60;;;8.40;99.90;;;;;;4910163;29;20128;-73
2021/01/21 00:52:44;;;;;;;1.25;0.77;;;8.40;99.90;;;;;;4910631;29;20036;-71
2021/01/21 00:55:10;;;;;;;1.25;0.52;;;8.50;99.90;;;;;;4909622;29;20088;-73
2021/01/21 00:57:35;;;;;;;3.30;0.93;;;8.50;99.90;;;;;;4910237;29;20466;-73
2021/01/21 01:00:04;;;;;;;1.30;0.63;;;8.50;99.90;;;;;;4909327;29;20043;-74
2021/01/21 01:02:30;;;;;;;1.80;1.10;;;8.50;99.90;;;;;;4872226;29;20042;-72
2021/01/21 01:04:55;;;;;;;2.10;0.95;;;8.50;99.90;;;;;;4872785;29;20104;-74
2021/01/21 01:07:21;;;;;;;5.03;1.45;;;8.50;99.90;;;;;;4872960;29;20455;-71
2021/01/21 01:09:46;;;;;;;1.10;0.65;;;8.50;99.90;;;;;;4872507;29;20073;-72
2021/01/21 01:12:12;;;;;;;1.90;0.88;;;8.50;99.90;;;;;;4872893;29;20550;-71
2021/01/21 01:14:37;;;;;;;3.33;1.27;;;8.50;99.90;;;;;;4872089;29;20072;-69
2021/01/21 01:17:03;;;;;;;1.48;0.80;;;8.40;99.90;;;;;;4872126;29;20447;-71
2021/01/21 01:19:28;;;;;;;2.30;0.85;;;8.40;99.90;;;;;;4872445;29;20082;-71
2021/01/21 01:21:54;;;;;;;1.38;1.00;;;8.40;99.90;;;;;;4872336;29;20030;-74
2021/01/21 01:24:21;;;;;;;0.68;0.47;;;8.40;99.90;;;;;;4872549;29;20041;-71
2021/01/21 01:26:47;;;;;;;3.72;1.15;;;8.40;99.90;;;;;;4872617;29;20035;-70
2021/01/21 01:29:12;;;;;;;1.45;0.88;;;8.40;99.90;;;;;;4872366;29;20155;-69
2021/01/21 01:31:38;;;;;;;2.97;1.05;;;8.40;99.90;;;;;;4871964;29;20037;-70
2021/01/21 01:34:04;;;;;;;2.42;0.68;;;8.40;99.90;;;;;;4872211;29;20050;-71
2021/01/21 01:36:29;;;;;;;2.60;1.05;;;8.40;99.90;;;;;;4872035;29;20037;-70
2021/01/21 01:38:55;;;;;;;1.67;1.02;;;8.30;99.90;;;;;;4871924;29;20034;-72
2021/01/21 01:41:21;;;;;;;3.70;0.95;;;8.30;99.90;;;;;;4872451;29;20025;-70
2021/01/21 01:43:49;;;;;;;2.28;1.20;;;8.30;99.90;;;;;;4872080;29;20030;-71
2021/01/21 01:46:15;;;;;;;1.63;0.95;;;8.30;99.90;;;;;;4871245;29;20073;-71
2021/01/21 01:48:41;;;;;;;2.25;0.90;;;8.30;99.90;;;;;;4872044;29;20057;-72
2021/01/21 01:51:06;;;;;;;2.65;1.08;;;8.30;99.90;;;;;;4871929;29;20029;-71
2021/01/21 01:53:34;;;;;;;2.90;0.80;;;8.30;99.90;;;;;;4871729;29;20042;-71
2021/01/21 01:56:00;;;;;;;1.48;0.75;;;8.30;99.90;;;;;;4871887;29;20076;-72
2021/01/21 01:58:27;;;;;;;2.08;1.13;;;8.30;99.90;;;;;;4871656;29;20081;-71
2021/01/21 02:00:57;;;;;;;1.38;0.82;;;8.30;99.90;;;;;;4884030;29;20056;-71
2021/01/21 02:03:22;;;;;;;2.55;1.05;;;8.30;99.90;;;;;;4909475;29;20035;-71
2021/01/21 02:05:52;;;;;;;3.72;1.00;;;8.30;99.90;;;;;;4909096;29;20051;-71
2021/01/21 02:08:22;;;;;;;1.48;0.80;;;8.30;99.90;;;;;;4909039;29;20084;-71
2021/01/21 02:10:48;;;;;;;1.58;0.70;;;8.30;99.90;;;;;;4909295;29;20033;-72
2021/01/21 02:13:22;;;;;;;1.55;0.93;;;8.30;99.90;;;;;;4908651;29;20041;-71
2021/01/21 02:16:26;;;;;;;1.10;0.70;;;8.30;99.90;;;;;;4892152;29;20041;-73
2021/01/21 02:19:25;;;;;;;1.75;0.63;;;8.30;99.90;;;;;;4906339;29;20044;-73
2021/01/21 02:22:13;;;;;;;1.13;0.75;;;8.30;99.90;;;;;;4908963;29;20088;-73
2021/01/21 02:24:48;;;;;;;4.32;0.85;;;8.30;99.90;;;;;;4909089;29;20064;-74
2021/01/21 02:27:18;;;;;;;1.38;0.77;;;8.30;99.90;;;;;;4908720;29;20047;-74
2021/01/21 02:29:44;;;;;;;2.92;1.08;;;8.30;99.90;;;;;;4892115;29;20033;-72
2021/01/21 02:32:59;;;;;;;2.05;1.08;;;8.30;99.90;;;;;;4908713;29;20025;-70
2021/01/21 02:35:26;;;;;;;1.80;0.77;;;8.30;99.90;;;;;;4850661;29;20054;-74
2021/01/21 02:37:54;;;;;;;0.22;0.22;;;8.20;99.90;;;;;;4902996;29;20040;-73
2021/01/21 02:40:21;;;;;;;1.55;0.95;;;8.20;99.90;;;;;;4908787;29;20039;-72
2021/01/21 02:42:48;;;;;;;2.10;0.60;;;8.20;99.90;;;;;;4908791;29;20039;-73
2021/01/21 02:45:14;;;;;;;2.08;0.98;;;8.20;99.90;;;;;;4909058;29;20081;-73
2021/01/21 02:47:41;;;;;;;2.38;1.20;;;8.30;99.90;;;;;;4891605;29;20029;-72
2021/01/21 02:50:08;;;;;;;1.80;1.13;;;8.30;99.90;;;;;;4908499;29;20033;-72
2021/01/21 02:52:39;;;;;;;1.73;0.80;;;8.30;99.90;;;;;;4908637;29;20032;-73
2021/01/21 02:55:12;;;;;;;1.08;0.88;;;8.30;99.90;;;;;;4908586;29;20048;-73
2021/01/21 02:58:01;;;;;;;1.17;0.50;;;8.30;99.90;;;;;;4909339;29;20036;-72
2021/01/21 03:00:27;;;;;;;2.15;1.23;;;8.30;99.90;;;;;;4911781;29;20057;-71
2021/01/21 03:02:57;;;;;;;1.27;0.45;;;8.30;99.90;;;;;;4911867;29;20036;-73
2021/01/21 03:05:24;;;;;;;3.05;1.10;;;8.30;99.90;;;;;;4912310;29;20067;-73
2021/01/21 03:07:51;;;;;;;1.20;0.63;;;8.30;99.90;;;;;;4912190;29;20033;-72
2021/01/21 03:10:19;;;;;;;2.67;0.77;;;8.30;99.90;;;;;;4911906;29;20417;-71
2021/01/21 03:12:52;;;;;;;1.27;0.77;;;8.30;99.90;;;;;;4912433;29;20057;-71
2021/01/21 03:15:19;;;;;;;1.05;0.77;;;8.30;99.90;;;;;;4912110;29;20060;-73
2021/01/21 03:17:45;;;;;;;4.07;1.27;;;8.30;99.90;;;;;;4911776;29;20052;-74
2021/01/21 03:20:11;;;;;;;1.40;0.63;;;8.30;99.90;;;;;;4911990;29;20024;-73
2021/01/21 03:22:37;;;;;;;1.27;0.80;;;8.30;99.90;;;;;;4911686;29;20410;-72
2021/01/21 03:25:03;;;;;;;1.08;0.82;;;8.30;99.90;;;;;;4911691;29;20056;-72
2021/01/21 03:27:28;;;;;;;2.38;0.95;;;8.30;99.90;;;;;;4911768;29;20036;-72
2021/01/21 03:29:54;;;;;;;4.40;1.00;;;8.30;99.90;;;;;;4894610;29;20553;-73
2021/01/21 03:32:19;;;;;;;1.95;0.63;;;8.30;99.90;;;;;;4911844;29;20037;-74
2021/01/21 03:34:46;;;;;;;1.40;0.70;;;8.30;99.90;;;;;;4911683;29;20096;-73
2021/01/21 03:37:11;;;;;;;2.70;1.00;;;8.30;99.90;;;;;;4911113;29;20477;-71
2021/01/21 03:39:37;;;;;;;2.33;1.13;;;8.30;99.90;;;;;;4911574;29;20044;-72
2021/01/21 03:42:03;;;;;;;0.98;0.50;;;8.30;99.90;;;;;;4911526;29;20033;-74
2021/01/21 03:44:28;;;;;;;1.90;0.98;;;8.30;99.90;;;;;;4911240;29;20120;-72
2021/01/21 03:46:54;;;;;;;1.15;0.55;;;8.40;99.90;;;;;;4911529;29;20039;-72
2021/01/21 03:49:19;;;;;;;0.68;0.45;;;8.40;99.90;;;;;;4911614;29;20032;-71
2021/01/21 03:51:45;;;;;;;1.83;0.90;;;8.50;99.90;;;;;;4911084;29;20037;-72
2021/01/21 03:54:10;;;;;;;6.57;0.68;;;8.40;99.90;;;;;;4911286;29;20048;-72
2021/01/21 03:56:36;;;;;;;2.45;0.80;;;8.50;99.90;;;;;;4911094;29;20098;-73
2021/01/21 03:59:02;;;;;;;1.10;0.63;;;8.50;99.90;;;;;;4910839;29;20039;-71
2021/01/21 04:01:27;;;;;;;2.42;0.95;;;8.50;99.90;;;;;;4910808;29;20056;-71
2021/01/21 04:03:53;;;;;;;1.10;0.65;;;8.50;99.90;;;;;;4911199;29;20040;-70
2021/01/21 04:06:19;;;;;;;1.00;0.88;;;8.50;99.90;;;;;;4911446;29;20110;-70
2021/01/21 04:08:44;;;;;;;2.47;0.88;;;8.50;99.90;;;;;;4910975;29;20038;-72
2021/01/21 04:11:10;;;;;;;1.80;0.70;;;8.50;99.90;;;;;;4910273;29;20033;-72
2021/01/21 04:13:35;;;;;;;1.75;0.55;;;8.50;99.90;;;;;;4893960;29;20032;-72
2021/01/21 04:16:01;;;;;;;1.52;0.63;;;8.50;99.90;;;;;;4910870;29;20115;-71
2021/01/21 04:18:26;;;;;;;1.70;0.90;;;8.50;99.90;;;;;;4910684;29;20434;-73
2021/01/21 04:20:52;;;;;;;6.18;0.70;;;8.50;99.90;;;;;;4910839;29;20043;-72
2021/01/21 04:23:17;;;;;;;1.33;0.73;;;8.50;99.90;;;;;;4911236;29;20024;-71
2021/01/21 04:25:43;;;;;;;1.10;0.60;;;8.40;99.90;;;;;;4910228;29;20033;-72
2021/01/21 04:28:09;;;;;;;0.75;0.65;;;8.40;99.90;;;;;;4910873;29;20032;-72
2021/01/21 04:30:34;;;;;;;1.55;0.73;;;8.40;99.90;;;;;;4910515;29;20036;-70
2021/01/21 04:33:00;;;;;;;0.40;0.40;;;8.40;99.90;;;;;;4910386;29;20036;-70
2021/01/21 04:35:25;;;;;;;0.43;0.38;;;8.40;99.90;;;;;;4910314;29;20045;-70
2021/01/21 04:37:51;;;;;;;4.50;1.58;;;8.40;99.90;;;;;;4910705;29;20457;-72
2021/01/21 04:40:17;;;;;;;0.85;0.60;;;8.40;99.90;;;;;;4910574;29;20104;-71
2021/01/21 04:42:42;;;;;;;1.33;0.77;;;8.40;99.90;;;;;;4910433;29;20024;-70
2021/01/21 04:45:09;;;;;;;0.90;0.50;;;8.40;99.90;;;;;;4893530;29;20127;-71
2021/01/21 04:47:35;;;;;;;1.70;0.88;;;8.40;99.90;;;;;;4910024;29;20100;-70
2021/01/21 04:50:02;;;;;;;3.90;0.75;;;8.40;99.90;;;;;;4910270;29;20029;-73
2021/01/21 04:52:33;;;;;;;1.42;0.70;;;8.50;99.90;;;;;;4909943;29;20028;-72
2021/01/21 04:55:04;;;;;;;0.50;0.50;;;8.50;99.90;;;;;;4910027;29;20044;-71
2021/01/21 04:57:48;;;;;;;3.72;0.90;;;8.50;99.90;;;;;;4893540;29;20376;-72
2021/01/21 05:00:16;;;;;;;0.63;0.47;;;8.40;99.90;;;;;;4892645;29;20045;-71
2021/01/21 05:02:44;;;;;;;0.60;0.38;;;8.40;99.90;;;;;;4910025;29;20028;-72
2021/01/21 05:05:11;;;;;;;3.13;0.60;;;8.40;99.90;;;;;;4909935;29;20052;-72
2021/01/21 05:07:40;;;;;;;1.10;0.85;;;8.40;99.90;;;;;;4892705;29;20084;-72
2021/01/21 05:10:09;;;;;;;1.80;0.45;;;8.40;99.90;;;;;;4910086;29;20031;-72
2021/01/21 05:12:36;;;;;;;1.05;0.50;;;8.50;99.90;;;;;;4892836;29;20036;-71
2021/01/21 05:15:03;;;;;;;0.47;0.38;;;8.50;99.90;;;;;;4909617;29;20064;-71
2021/01/21 05:17:28;;;;;;;2.03;0.88;;;8.60;99.90;;;;;;4909845;29;20040;-70
2021/01/21 05:19:54;;;;;;;0.68;0.43;;;8.60;99.90;;;;;;4909958;29;20508;-71
2021/01/21 05:22:21;;;;;;;4.18;0.82;;;8.60;99.90;;;;;;4909385;29;20043;-71
2021/01/21 05:24:47;;;;;;;1.13;0.50;;;8.60;99.90;;;;;;4910075;29;20025;-70
2021/01/21 05:27:17;;;;;;;1.00;0.73;;;8.70;99.90;;;;;;4892631;29;20028;-73
2021/01/21 05:29:45;;;;;;;1.00;0.60;;;8.70;99.90;;;;;;4909723;29;20063;-70
2021/01/21 05:32:15;;;;;;;3.90;0.85;;;8.70;99.90;;;;;;4909441;29;20044;-71
2021/01/21 05:34:43;;;;;;;3.33;0.90;;;8.80;99.90;;;;;;4909270;29;20100;-72
2021/01/21 05:37:10;;;;;;;2.78;0.50;;;8.80;99.90;;;;;;4909622;29;20151;-71
2021/01/21 05:39:37;;;;;;;0.90;0.60;;;8.80;99.90;;;;;;4909390;29;20147;-71
2021/01/21 05:42:04;;;;;;;0.55;0.47;;;8.90;99.90;;;;;;4909222;29;20039;-71
2021/01/21 05:44:31;;;;;;;3.20;0.50;;;8.90;99.90;;;;;;4909393;29;20024;-70
2021/01/21 05:46:57;;;;;;;1.27;0.82;;;9.00;99.90;;;;;;4909354;29;20025;-73
2021/01/21 05:49:26;;;;;;;0.40;0.38;;;9.10;99.90;;;;;;4909267;29;20045;-71
2021/01/21 05:51:54;;;;;;;0.65;0.50;;;9.20;99.90;;;;;;4892443;29;20088;-73
2021/01/21 05:54:21;;;;;;;1.05;0.47;;;9.20;99.90;;;;;;4908034;29;20053;-71
2021/01/21 05:56:47;;;;;;;1.65;0.63;;;9.30;99.90;;;;;;4909188;29;20056;-70
2021/01/21 05:59:15;;;;;;;1.98;0.43;;;9.40;99.90;;;;;;4909345;29;20017;-73
2021/01/21 06:01:40;;;;;;;1.20;0.50;;;9.40;99.90;;;;;;4888606;29;20092;-71
2021/01/21 06:04:06;;;;;;;1.05;0.93;;;9.50;99.90;;;;;;4888874;29;20124;-73
2021/01/21 06:06:39;;;;;;;1.13;0.40;;;9.60;99.90;;;;;;4890743;29;20029;-72
2021/01/21 06:09:07;;;;;;;0.55;0.40;;;9.70;99.90;;;;;;4889183;29;20056;-72
2021/01/21 06:11:33;;;;;;;2.45;0.60;;;9.70;99.90;;;;;;4890079;29;20112;-71
2021/01/21 06:14:00;;;;;;;1.35;0.68;;;9.80;99.90;;;;;;4890430;29;20025;-70
2021/01/21 06:16:27;;;;;;;1.15;0.55;;;9.90;99.90;;;;;;4890557;29;20056;-71
2021/01/21 06:18:52;;;;;;;10.65;0.98;;;10.00;99.90;;;;;;4890142;29;20041;-73
2021/01/21 06:21:24;;;;;;;1.15;0.38;;;10.00;99.90;;;;;;4890360;29;20029;-73
2021/01/21 06:24:00;;;;;;;0.98;0.50;;;10.10;99.90;;;;;;4890367;29;20080;-72
2021/01/21 06:26:28;;;;;;;2.63;0.57;;;10.10;99.90;;;;;;4889106;29;20030;-73
2021/01/21 06:28:58;;;;;;;1.00;0.55;;;10.10;99.90;;;;;;4890519;29;20030;-72
2021/01/21 06:31:26;;;;;;;5.07;0.47;;;10.20;99.90;;;;;;4888745;29;20039;-72
2021/01/21 06:33:53;;;;;;;0.50;0.28;;;10.20;99.90;;;;;;4892817;29;20029;-76
2021/01/21 06:36:22;;;;;;;2.50;0.38;;;10.20;99.90;;;;;;4908754;29;20045;-73
2021/01/21 06:38:55;;;;;;;0.63;0.40;;;10.20;99.90;;;;;;4894104;29;20117;-72
2021/01/21 06:41:22;;;;;;;0.47;0.23;;;10.20;99.90;;;;;;4894135;29;20029;-72
2021/01/21 06:43:49;;;;;;;2.85;0.73;;;10.20;99.90;;;;;;4894140;29;20029;-72
2021/01/21 06:46:16;;;;;;;0.50;0.30;;;10.30;99.90;;;;;;4893515;29;20056;-75
2021/01/21 06:48:46;;;;;;;10.70;0.50;;;10.20;99.90;;;;;;4893817;29;20032;-71
2021/01/21 06:51:13;;;;;;;5.05;0.45;;;10.10;99.90;;;;;;4894071;29;20029;-71
2021/01/21 06:53:43;;;;;;;0.28;0.28;;;9.70;99.90;;;;;;4894233;29;20029;-72
2021/01/21 06:56:10;;;;;;;0.10;0.10;;;9.10;99.90;;;;;;4894213;29;20088;-69
2021/01/21 06:58:48;;;;;;;0.10;0.00;;;8.70;99.90;;;;;;4907865;29;20033;-71
2021/01/21 07:01:32;;;;;;;1.35;0.30;;;8.40;99.90;;;;;;4901516;29;20064;-72
2021/01/21 07:04:21;;;;;;;2.63;0.10;;;8.20;99.90;;;;;;4912517;29;20036;-73
2021/01/21 07:06:52;;;;;;;0.22;0.20;;;8.00;99.90;;;;;;4895151;29;20040;-74
2021/01/21 07:09:24;;;;;;;0.00;0.00;;;7.80;99.90;;;;;;4912256;29;20029;-72
2021/01/21 07:11:52;;;;;;;0.15;0.10;;;7.70;99.90;;;;;;4912456;29;20060;-71
2021/01/21 07:14:19;;;;;;;0.10;0.00;;;7.60;99.90;;;;;;4895132;29;20458;-73
2021/01/21 07:16:49;;;;;;;0.00;0.00;;;7.40;99.90;;;;;;4912542;29;20095;-72
2021/01/21 07:19:15;;;;;;;0.38;0.10;;;7.20;99.90;;;;;;4911824;29;20037;-72
2021/01/21 07:21:51;;;;;;;0.00;0.00;;;7.10;99.90;;;;;;4894785;29;20033;-71
2021/01/21 07:24:21;;;;;;;0.05;0.05;;;6.90;99.90;;;;;;4912096;29;20051;-73
2021/01/21 07:26:50;;;;;;;0.45;0.20;;;6.90;99.90;;;;;;4894854;29;20041;-70
2021/01/21 07:29:21;;;;;;;0.13;0.08;;;6.80;99.90;;;;;;4894937;29;20032;-70
2021/01/21 07:31:56;;;;;;;0.17;0.10;;;6.80;99.90;;;;;;4894520;29;20044;-70
2021/01/21 07:34:28;;;;;;;1.17;0.63;;;6.70;99.90;;;;;;4894651;29;20135;-73
2021/01/21 07:37:14;;;;;;;0.63;0.30;;;6.70;99.90;;;;;;4910083;29;20067;-71
2021/01/21 07:40:04;;;;;;;4.60;0.35;;;6.60;99.90;;;;;;4911510;29;20032;-72
2021/01/21 07:42:33;;;;;;;0.40;0.20;;;6.60;99.90;;;;;;4894353;29;20057;-71
2021/01/21 07:45:05;;;;;;;1.35;0.32;;;6.60;99.90;;;;;;4911010;29;20135;-74
2021/01/21 07:47:30;;;;;;;0.03;0.00;;;6.50;99.90;;;;;;4911117;29;20025;-74
2021/01/21 07:50:24;;;;;;;0.70;0.38;;;6.50;99.90;;;;;;4911065;29;20028;-72
2021/01/21 07:52:52;;;;;;;0.22;0.20;;;6.50;99.90;;;;;;4910822;29;20184;-73
2021/01/21 07:55:29;;;;;;;3.03;0.50;;;6.50;99.90;;;;;;4910315;29;20077;-74
2021/01/21 07:58:16;;;;;;;0.13;0.13;;;6.50;99.90;;;;;;4911179;29;20032;-71
2021/01/21 08:00:43;;;;;;;2.60;0.38;;;6.50;99.90;;;;;;4909024;29;20088;-73
2021/01/21 08:03:09;;;;;;;1.27;0.57;;;6.50;99.90;;;;;;4910630;29;20053;-73
2021/01/21 08:05:34;;;;;;;3.50;0.30;;;6.60;99.90;;;;;;4909474;29;20029;-73
2021/01/21 08:08:03;;;;;;;0.70;0.47;;;6.60;99.90;;;;;;4910141;29;20025;-72
2021/01/21 08:10:38;;;;;;;2.35;0.60;;;6.60;99.90;;;;;;4909947;29;20032;-72
2021/01/21 08:13:05;;;;;;;0.13;0.10;;;6.70;99.90;;;;;;4909117;29;20029;-73
2021/01/21 08:15:33;;;;;;;3.72;0.95;;;6.70;99.90;;;;;;4910222;29;20092;-74
2021/01/21 08:17:59;;;;;;;2.17;0.63;;;6.70;99.90;;;;;;4909425;29;20084;-75
2021/01/21 08:20:30;;;;;;;0.35;0.20;;;6.70;99.90;;;;;;4910569;29;20033;-75
2021/01/21 08:23:06;;;;;;;0.35;0.20;;;6.80;99.90;;;;;;4908408;29;20028;-76
2021/01/21 08:25:45;;;;;;;0.00;0.00;;;6.80;99.90;;;;;;4910339;29;20041;-72
2021/01/21 08:28:15;;;;;;;8.20;0.90;;;6.80;99.90;;;;;;4909979;29;20064;-74
2021/01/21 08:30:41;;;;;;;4.53;0.50;;;6.80;99.90;;;;;;4909787;29;20032;-72
2021/01/21 08:33:28;;;;;;;6.47;1.23;;;6.80;99.90;;;;;;4910322;29;20108;-73
2021/01/21 08:36:04;;;;;;;2.38;1.20;;;6.80;99.90;;;;;;4908841;29;20096;-72
2021/01/21 08:38:42;;;;;;;1.50;0.73;;;6.90;99.90;;;;;;4909629;29;20033;-73
2021/01/21 08:41:12;;;;;;;2.22;0.50;;;6.90;99.90;;;;;;4909865;29;20084;-71
2021/01/21 08:43:42;;;;;;;1.85;0.65;;;6.80;99.90;;;;;;4908000;29;20029;-74
2021/01/21 08:46:23;;;;;;;1.95;1.08;;;6.90;99.90;;;;;;4909825;29;20569;-73
2021/01/21 08:48:50;;;;;;;1.13;0.63;;;6.90;99.90;;;;;;4909715;29;20044;-73
2021/01/21 08:51:42;;;;;;;1.23;0.55;;;6.90;99.90;;;;;;4908227;29;20036;-73
2021/01/21 08:54:18;;;;;;;0.75;0.22;;;6.90;99.90;;;;;;4910354;29;20040;-74
2021/01/21 08:57:10;;;;;;;0.22;0.20;;;7.00;99.90;;;;;;4909728;29;20036;-74
2021/01/21 08:59:37;;;;;;;3.03;0.88;;;7.00;99.90;;;;;;4909732;29;20032;-73
2021/01/21 09:02:06;;;;;;;0.30;0.20;;;6.90;99.90;;;;;;4909362;29;20063;-73
2021/01/21 09:04:35;;;;;;;0.40;0.25;;;7.00;99.90;;;;;;4912901;29;20028;-71
2021/01/21 09:07:02;;;;;;;5.63;1.20;;;7.00;99.90;;;;;;4918956;29;20028;-74
2021/01/21 09:09:36;;;;;;;1.65;0.80;;;7.00;99.90;;;;;;4902905;29;20044;-71
2021/01/21 09:12:23;;;;;;;12.13;2.65;;;7.10;99.90;;;;;;4927623;29;20043;-73
2021/01/21 09:15:14;;;;;;;4.18;0.80;;;7.20;99.90;;;;;;4910651;29;20044;-73
2021/01/21 09:17:41;;;;;;;2.85;0.80;;;7.50;99.90;;;;;;4928330;29;20032;-75
2021/01/21 09:20:24;;;;;;;0.43;0.40;;;7.70;99.90;;;;;;4927620;29;20048;-72
2021/01/21 09:22:50;;;;;;;1.13;0.60;;;7.90;99.90;;;;;;4910649;29;20078;-73
2021/01/21 09:25:28;;;;;;;3.10;0.28;;;8.00;99.90;;;;;;4927957;29;20064;-73
2021/01/21 09:27:55;;;;;;;0.65;0.43;;;8.20;99.90;;;;;;4928409;29;20473;-70
2021/01/21 09:30:22;;;;;;;0.50;0.50;;;8.40;99.90;;;;;;4927891;29;20020;-73
2021/01/21 09:32:48;;;;;;;0.65;0.28;;;8.60;99.90;;;;;;4910609;29;20096;-73
2021/01/21 09:35:22;;;;;;;1.20;0.65;;;8.80;99.90;;;;;;4920882;29;20047;-72
2021/01/21 09:37:54;;;;;;;0.55;0.45;;;8.90;99.90;;;;;;4909702;29;20120;-72
2021/01/21 09:40:24;;;;;;;0.52;0.28;;;9.10;99.90;;;;;;4909167;29;20039;-73
2021/01/21 09:42:55;;;;;;;1.08;0.70;;;9.40;99.90;;;;;;4909082;29;20029;-71
2021/01/21 09:45:21;;;;;;;14.90;0.52;;;9.70;99.90;;;;;;4913188;29;20031;-71
2021/01/21 09:47:50;;;;;;;0.70;0.35;;;9.90;99.90;;;;;;4909494;29;20060;-72
2021/01/21 09:50:16;;;;;;;0.50;0.25;;;10.00;99.90;;;;;;4891610;29;20097;-72
2021/01/21 09:52:42;;;;;;;0.80;0.43;;;9.80;99.90;;;;;;4909201;29;20439;-71
2021/01/21 09:55:08;;;;;;;0.95;0.35;;;9.70;99.90;;;;;;4921803;29;20363;-71
2021/01/21 09:57:34;;;;;;;1.88;0.60;;;9.60;99.90;;;;;;4928057;29;20028;-73
2021/01/21 09:59:59;;;;;;;0.50;0.20;;;9.60;99.90;;;;;;4921184;29;20028;-74
2021/01/21 10:02:27;;;;;;;0.98;0.80;;;9.60;99.90;;;;;;4910183;29;20050;-73
2021/01/21 10:04:53;;;;;;;0.80;0.30;;;9.60;99.90;;;;;;4893407;29;20037;-73
2021/01/21 10:07:20;;;;;;;0.28;0.20;;;9.50;99.90;;;;;;4911675;29;20429;-75
2021/01/21 10:09:45;;;;;;;2.28;0.95;;;9.30;99.90;;;;;;4916202;29;20457;-72
2021/01/21 10:12:11;;;;;;;4.28;0.43;;;9.20;99.90;;;;;;4918206;29;20021;-73
2021/01/21 10:14:37;;;;;;;3.35;0.55;;;9.00;99.90;;;;;;4916427;29;20032;-72
2021/01/21 10:17:07;;;;;;;1.75;0.80;;;9.10;99.90;;;;;;4906210;29;20032;-71
2021/01/21 10:19:33;;;;;;;2.28;0.75;;;9.50;99.90;;;;;;4907837;29;20128;-72
2021/01/21 10:21:59;;;;;;;7.60;1.23;;;9.90;99.90;;;;;;4907322;29;20037;-73
2021/01/21 10:24:25;;;;;;;1.45;0.75;;;10.30;99.90;;;;;;4916542;29;20028;-73
2021/01/21 10:26:51;;;;;;;1.15;0.60;;;10.30;99.90;;;;;;4927022;29;20046;-72
2021/01/21 10:29:18;;;;;;;3.95;0.80;;;10.30;99.90;;;;;;4926661;29;20517;-72
2021/01/21 10:31:44;;;;;;;3.50;1.08;;;10.50;99.90;;;;;;4927417;29;20400;-73
2021/01/21 10:34:10;;;;;;;5.07;0.60;;;10.60;99.90;;;;;;4926731;29;20039;-72
2021/01/21 10:36:36;;;;;;;3.05;1.25;;;10.70;99.90;;;;;;4927218;29;20029;-73
2021/01/21 10:39:03;;;;;;;1.73;0.55;;;10.80;99.90;;;;;;4927054;29;20028;-72
2021/01/21 10:41:29;;;;;;;1.92;0.70;;;10.90;99.90;;;;;;4904983;29;20061;-72
2021/01/21 10:43:54;;;;;;;1.27;0.57;;;11.30;99.90;;;;;;4907625;29;20028;-73
2021/01/21 10:46:21;;;;;;;0.60;0.30;;;11.40;99.90;;;;;;4907782;29;20040;-73
2021/01/21 10:48:46;;;;;;;0.30;0.28;;;11.60;99.90;;;;;;4907513;29;20095;-70
2021/01/21 10:51:12;;;;;;;0.95;0.40;;;11.50;99.90;;;;;;4906961;29;20033;-72
2021/01/21 10:53:37;;;;;;;5.78;1.10;;;11.40;99.90;;;;;;4907154;29;20096;-72
2021/01/21 10:56:03;;;;;;;4.10;1.23;;;11.60;99.90;;;;;;4905876;29;20072;-72
2021/01/21 10:58:29;;;;;;;3.30;1.33;;;11.70;99.90;;;;;;4906652;29;20064;-74
2021/01/21 11:00:54;;;;;;;5.22;0.63;;;11.70;99.90;;;;;;4904188;29;20053;-73
2021/01/21 11:03:20;;;;;;;4.32;0.50;;;11.90;99.90;;;;;;4905595;29;20024;-72
2021/01/21 11:05:46;;;;;;;0.73;0.45;;;11.80;99.90;;;;;;4905676;29;20037;-72
2021/01/21 11:08:12;;;;;;;1.35;0.52;;;11.80;99.90;;;;;;4906326;29;20107;-71
2021/01/21 11:10:39;;;;;;;1.77;0.73;;;11.90;99.90;;;;;;4906850;29;20029;-72
2021/01/21 11:13:05;;;;;;;1.55;0.65;;;11.90;99.90;;;;;;4906789;29;20033;-69
2021/01/21 11:15:31;;;;;;;1.00;0.63;;;11.70;99.90;;;;;;4906382;29;20060;-71
2021/01/21 11:17:57;;;;;;;0.95;0.45;;;11.80;99.90;;;;;;4906625;29;20029;-70
2021/01/21 11:20:23;;;;;;;1.88;0.80;;;11.60;99.90;;;;;;4909736;29;20114;-71
2021/01/21 11:22:49;;;;;;;1.00;0.75;;;11.30;99.90;;;;;;4909855;29;20040;-69
2021/01/21 11:25:15;;;;;;;0.63;0.28;;;10.80;99.90;;;;;;4909135;29;20024;-70
2021/01/21 11:27:41;;;;;;;4.47;0.60;;;10.80;99.90;;;;;;4910205;29;20037;-72
2021/01/21 11:30:09;;;;;;;0.57;0.30;;;10.90;99.90;;;;;;4910218;29;20020;-73
2021/01/21 11:32:35;;;;;;;4.85;0.77;;;11.30;99.90;;;;;;4907683;29;20031;-72
2021/01/21 11:35:01;;;;;;;0.82;0.38;;;11.70;99.90;;;;;;4908645;29;20084;-72
2021/01/21 11:37:27;;;;;;;0.30;0.25;;;11.90;99.90;;;;;;4910385;29;20091;-73
2021/01/21 11:39:54;;;;;;;0.40;0.40;;;12.10;99.90;;;;;;4911380;29;20421;-75
2021/01/21 11:42:21;;;;;;;0.52;0.32;;;11.80;99.90;;;;;;4909914;29;20021;-76
2021/01/21 11:44:46;;;;;;;0.90;0.57;;;11.70;99.90;;;;;;4910599;29;20434;-73
2021/01/21 11:47:12;;;;;;;3.75;1.60;;;11.80;99.90;;;;;;4910928;29;20037;-75
2021/01/21 11:49:38;;;;;;;1.30;0.68;;;11.60;99.90;;;;;;4910677;29;20025;-74
2021/01/21 11:52:04;;;;;;;2.13;0.80;;;11.20;99.90;;;;;;4910966;29;20029;-73
2021/01/21 11:54:30;;;;;;;4.97;1.48;;;11.20;99.90;;;;;;4910806;29;20040;-75
2021/01/21 11:56:56;;;;;;;0.73;0.68;;;11.30;99.90;;;;;;4910658;29;20044;-73
2021/01/21 11:59:21;;;;;;;1.15;0.70;;;11.30;99.90;;;;;;4909286;29;20069;-72
2021/01/21 12:01:47;;;;;;;2.38;0.52;;;11.10;99.90;;;;;;4910778;29;20431;-73
2021/01/21 12:04:13;;;;;;;1.02;0.35;;;10.90;99.90;;;;;;4909230;29;20028;-71
2021/01/21 12:06:39;;;;;;;4.22;0.73;;;10.80;99.90;;;;;;4911042;29;20033;-71
2021/01/21 12:09:05;;;;;;;1.20;0.47;;;10.40;99.90;;;;;;4910901;29;20068;-73
2021/01/21 12:11:31;;;;;;;1.08;0.77;;;10.10;99.90;;;;;;4910200;29;20033;-70
2021/01/21 12:13:57;;;;;;;7.65;1.10;;;9.90;99.90;;;;;;4910967;29;20033;-73
2021/01/21 12:16:23;;;;;;;2.83;0.80;;;9.80;99.90;;;;;;4910327;29;20328;-73
2021/01/21 12:18:50;;;;;;;7.03;0.95;;;9.70;99.90;;;;;;4910314;29;20120;-75
2021/01/21 12:21:16;;;;;;;2.88;0.50;;;9.50;99.90;;;;;;4910885;29;20039;-72
2021/01/21 12:23:41;;;;;;;6.75;1.00;;;9.60;99.90;;;;;;4910524;29;20111;-71
2021/01/21 12:26:07;;;;;;;5.32;0.93;;;9.80;99.90;;;;;;4908658;29;20059;-71
2021/01/21 12:28:34;;;;;;;22.48;0.93;;;9.80;99.90;;;;;;4910428;29;20040;-71
2021/01/21 12:31:00;;;;;;;2.75;0.75;;;9.70;99.90;;;;;;4909441;29;20088;-73
2021/01/21 12:33:25;;;;;;;1.65;0.60;;;9.90;99.90;;;;;;4910119;29;20037;-72
2021/01/21 12:35:51;;;;;;;1.05;0.57;;;9.90;99.90;;;;;;4910304;29;20127;-72
2021/01/21 12:38:17;;;;;;;0.52;0.30;;;9.80;99.90;;;;;;4910128;29;20052;-72
2021/01/21 12:40:43;;;;;;;0.88;0.60;;;9.60;99.90;;;;;;4909371;29;20025;-73
2021/01/21 12:43:08;;;;;;;1.55;0.63;;;9.50;99.90;;;;;;4910160;29;20033;-69
2021/01/21 12:45:34;;;;;;;0.40;0.20;;;9.30;99.90;;;;;;4909882;29;20100;-74
2021/01/21 12:47:59;;;;;;;2.67;0.73;;;9.20;99.90;;;;;;4909883;29;20033;-72
2021/01/21 12:50:25;;;;;;;0.43;0.30;;;9.30;99.90;;;;;;4910089;29;20037;-74
2021/01/21 12:52:50;;;;;;;1.27;0.50;;;9.40;99.90;;;;;;4909812;29;20040;-74
2021/01/21 12:55:16;;;;;;;5.45;0.70;;;9.60;99.90;;;;;;4909843;29;20036;-73
2021/01/21 12:57:41;;;;;;;6.50;1.20;;;10.00;99.90;;;;;;4910125;29;20044;-72
2021/01/21 13:00:09;;;;;;;0.80;0.63;;;10.30;99.90;;;;;;4909626;29;20044;-71
2021/01/21 13:02:36;;;;;;;2.53;0.77;;;10.30;99.90;;;;;;4909436;29;20120;-72